Private Wetterstation Wechselburg
Wetterdaten: Sonntag, 29.08.2021
Datum Zeit Temp. +2m Bodentemp. Temp.+5cm Temp. Wind Windchill X Diff Temp. Feuchte +2m Feuchte +5cm Luftdruck Regen Wind Richtung Richtung Sonnenschein Taupunkt Windchill Windben
29.08.2021 00:00 10,4 C 17,9 C 11,1 C 10,7 C 10,7 C 0,3 C 88 % 92 % 1014,4 hPa 0,0 l/m 0,0 km/h (0 Bft) O-NO 67 0 min 8,5 C 10,7 C 0,0 km/h (0 Bft)
29.08.2021 00:05 10,4 C 17,9 C 11,1 C 10,7 C 10,7 C 0,3 C 88 % 92 % 1014,4 hPa 0,0 l/m 0,0 km/h (0 Bft) O-NO 67 0 min 8,5 C 10,7 C 0,0 km/h (0 Bft)
29.08.2021 00:10 10,3 C 17,9 C 11,1 C 10,7 C 10,7 C 0,4 C 88 % 92 % 1014,4 hPa 0,0 l/m 0,0 km/h (0 Bft) O-NO 67 0 min 8,4 C 10,7 C 0,0 km/h (0 Bft)
29.08.2021 00:15 10,3 C 17,9 C 11,0 C 10,8 C 10,8 C 0,5 C 88 % 92 % 1014,3 hPa 0,0 l/m 0,0 km/h (0 Bft) O-NO 67 0 min 8,4 C 10,8 C 0,0 km/h (0 Bft)
29.08.2021 00:20 10,3 C 17,9 C 11,0 C 10,7 C 10,7 C 0,4 C 88 % 92 % 1014,3 hPa 0,0 l/m 0,0 km/h (0 Bft) O-NO 67 0 min 8,4 C 10,7 C 0,0 km/h (0 Bft)
29.08.2021 00:25 10,3 C 17,9 C 11,0 C 10,7 C 10,7 C 0,4 C 88 % 92 % 1014,3 hPa 0,0 l/m 0,0 km/h (0 Bft) O-NO 67 0 min 8,4 C 10,7 C 0,0 km/h (0 Bft)
29.08.2021 00:30 10,2 C 17,9 C 10,9 C 10,5 C 10,5 C 0,3 C 88 % 92 % 1014,3 hPa 0,0 l/m 0,0 km/h (0 Bft) O-NO 67 0 min 8,3 C 10,5 C 0,0 km/h (0 Bft)
29.08.2021 00:35 10,1 C 17,9 C 10,7 C 10,3 C 10,3 C 0,2 C 88 % 92 % 1014,6 hPa 0,0 l/m 0,0 km/h (0 Bft) O-NO 67 0 min 8,2 C 10,3 C 0,0 km/h (0 Bft)
29.08.2021 00:40 10,0 C 17,9 C 10,7 C 10,4 C 10,4 C 0,4 C 88 % 92 % 1014,6 hPa 0,0 l/m 0,0 km/h (0 Bft) O-NO 67 0 min 8,1 C 10,4 C 0,0 km/h (0 Bft)
29.08.2021 00:45 10,1 C 17,9 C 10,7 C 10,4 C 10,4 C 0,3 C 88 % 92 % 1014,6 hPa 0,0 l/m 0,0 km/h (0 Bft) O-NO 67 0 min 8,2 C 10,4 C 0,0 km/h (0 Bft)
29.08.2021 00:50 10,0 C 17,9 C 10,7 C 10,4 C 10,4 C 0,4 C 88 % 92 % 1014,6 hPa 0,0 l/m 0,0 km/h (0 Bft) O-NO 67 0 min 8,1 C 10,4 C 0,0 km/h (0 Bft)
29.08.2021 00:55 10,0 C 17,9 C 10,7 C 10,5 C 10,5 C 0,5 C 88 % 92 % 1014,5 hPa 0,0 l/m 0,0 km/h (0 Bft) O-NO 67 0 min 8,1 C 10,5 C 0,0 km/h (0 Bft)
29.08.2021 01:00 10,0 C 17,9 C 10,7 C 10,5 C 10,5 C 0,5 C 88 % 92 % 1014,5 hPa 0,0 l/m 0,0 km/h (0 Bft) O-NO 67 0 min 8,1 C 10,5 C 0,0 km/h (0 Bft)
29.08.2021 01:05 9,9 C 17,9 C 10,7 C 10,5 C 10,5 C 0,6 C 88 % 92 % 1014,5 hPa 0,0 l/m 0,0 km/h (0 Bft) O-NO 67 0 min 8,0 C 10,5 C 0,0 km/h (0 Bft)
29.08.2021 01:10 9,9 C 17,9 C 10,7 C 10,5 C 10,5 C 0,6 C 88 % 92 % 1014,5 hPa 0,0 l/m 0,0 km/h (0 Bft) O-NO 67 0 min 8,0 C 10,5 C 0,0 km/h (0 Bft)
29.08.2021 01:15 9,9 C 17,9 C 10,7 C 10,5 C 10,5 C 0,6 C 88 % 92 % 1014,4 hPa 0,0 l/m 0,0 km/h (0 Bft) O-NO 67 0 min 8,0 C 10,5 C 0,0 km/h (0 Bft)
29.08.2021 01:20 9,9 C 17,9 C 10,8 C 10,4 C 10,4 C 0,5 C 88 % 92 % 1014,4 hPa 0,0 l/m 0,0 km/h (0 Bft) O-NO 67 0 min 8,0 C 10,4 C 0,0 km/h (0 Bft)
29.08.2021 01:25 9,9 C 17,9 C 10,7 C 10,5 C 10,5 C 0,6 C 88 % 92 % 1014,4 hPa 0,0 l/m 0,0 km/h (0 Bft) O-NO 67 0 min 8,0 C 10,5 C 0,0 km/h (0 Bft)
29.08.2021 01:30 9,9 C 17,9 C 10,7 C 10,5 C 10,5 C 0,6 C 88 % 92 % 1014,4 hPa 0,0 l/m 0,0 km/h (0 Bft) O-NO 67 0 min 8,0 C 10,5 C 0,0 km/h (0 Bft)
29.08.2021 01:35 9,9 C 17,9 C 10,7 C 10,6 C 10,6 C 0,7 C 88 % 92 % 1014,4 hPa 0,0 l/m 0,0 km/h (0 Bft) O-NO 67 0 min 8,0 C 10,6 C 0,0 km/h (0 Bft)
29.08.2021 01:40 9,9 C 17,9 C 10,7 C 10,5 C 10,5 C 0,6 C 88 % 92 % 1014,4 hPa 0,0 l/m 0,0 km/h (0 Bft) O-NO 67 0 min 8,0 C 10,5 C 0,0 km/h (0 Bft)
29.08.2021 01:45 9,9 C 17,9 C 10,7 C 10,5 C 10,5 C 0,6 C 88 % 92 % 1014,4 hPa 0,0 l/m 0,0 km/h (0 Bft) O-NO 67 0 min 8,0 C 10,5 C 0,0 km/h (0 Bft)
29.08.2021 01:50 9,9 C 17,9 C 10,8 C 10,4 C 10,4 C 0,5 C 88 % 92 % 1014,4 hPa 0,0 l/m 0,0 km/h (0 Bft) O-NO 67 0 min 8,0 C 10,4 C 0,0 km/h (0 Bft)
29.08.2021 01:55 9,9 C 17,9 C 10,8 C 10,5 C 10,5 C 0,6 C 88 % 92 % 1014,2 hPa 0,0 l/m 0,0 km/h (0 Bft) O-NO 67 0 min 8,0 C 10,5 C 0,0 km/h (0 Bft)
29.08.2021 02:00 9,9 C 17,9 C 10,8 C 10,6 C 10,6 C 0,7 C 88 % 92 % 1014,2 hPa 0,0 l/m 0,0 km/h (0 Bft) O-NO 67 0 min 8,0 C 10,6 C 0,0 km/h (0 Bft)
29.08.2021 02:05 9,9 C 17,9 C 10,9 C 10,8 C 10,8 C 0,9 C 88 % 92 % 1014,2 hPa 0,0 l/m 0,0 km/h (0 Bft) O-NO 67 0 min 8,0 C 10,8 C 0,0 km/h (0 Bft)
29.08.2021 02:10 9,9 C 17,9 C 11,0 C 10,9 C 10,9 C 1,0 C 88 % 92 % 1014,2 hPa 0,0 l/m 0,0 km/h (0 Bft) O-NO 67 0 min 8,0 C 10,9 C 0,0 km/h (0 Bft)
29.08.2021 02:15 10,0 C 17,9 C 11,0 C 11,1 C 11,1 C 1,1 C 88 % 92 % 1014,4 hPa 0,0 l/m 0,0 km/h (0 Bft) O-NO 67 0 min 8,1 C 11,1 C 0,0 km/h (0 Bft)
29.08.2021 02:20 10,1 C 17,9 C 11,1 C 11,2 C 11,2 C 1,1 C 88 % 92 % 1014,4 hPa 0,0 l/m 0,0 km/h (0 Bft) O-NO 67 0 min 8,2 C 11,2 C 0,0 km/h (0 Bft)
29.08.2021 02:25 10,1 C 17,9 C 11,1 C 11,3 C 11,3 C 1,2 C 88 % 92 % 1014,4 hPa 0,0 l/m 0,0 km/h (0 Bft) O-NO 67 0 min 8,2 C 11,3 C 0,0 km/h (0 Bft)
29.08.2021 02:30 10,1 C 17,9 C 11,2 C 11,4 C 11,4 C 1,3 C 88 % 92 % 1014,4 hPa 0,0 l/m 0,0 km/h (0 Bft) O-NO 67 0 min 8,2 C 11,4 C 0,0 km/h (0 Bft)
29.08.2021 02:35 10,3 C 17,9 C 11,3 C 11,5 C 11,5 C 1,2 C 88 % 92 % 1015,0 hPa 0,0 l/m 0,0 km/h (0 Bft) S-SW 202 0 min 8,4 C 11,5 C 0,0 km/h (0 Bft)
29.08.2021 02:40 10,3 C 17,9 C 11,3 C 11,6 C 11,6 C 1,3 C 88 % 92 % 1015,0 hPa 0,0 l/m 0,0 km/h (0 Bft) S-SW 202 0 min 8,4 C 11,6 C 0,0 km/h (0 Bft)
29.08.2021 02:45 10,3 C 17,9 C 11,4 C 11,7 C 11,7 C 1,4 C 88 % 92 % 1015,0 hPa 0,0 l/m 0,0 km/h (0 Bft) S-SW 202 0 min 8,4 C 11,7 C 0,0 km/h (0 Bft)
29.08.2021 02:50 10,4 C 17,9 C 11,4 C 11,7 C 11,7 C 1,3 C 88 % 92 % 1015,0 hPa 0,0 l/m 0,0 km/h (0 Bft) S-SW 202 0 min 8,5 C 11,7 C 0,0 km/h (0 Bft)
29.08.2021 02:55 10,5 C 17,9 C 11,5 C 11,8 C 11,8 C 1,3 C 89 % 92 % 1013,8 hPa 0,0 l/m 0,0 km/h (0 Bft) S-SO 157 0 min 8,8 C 11,8 C 0,0 km/h (0 Bft)
29.08.2021 03:00 10,4 C 17,9 C 11,5 C 11,8 C 11,8 C 1,4 C 88 % 92 % 1013,8 hPa 0,0 l/m 0,0 km/h (0 Bft) S-SO 157 0 min 8,5 C 11,8 C 0,0 km/h (0 Bft)
29.08.2021 03:05 10,5 C 17,9 C 11,5 C 11,8 C 11,8 C 1,3 C 89 % 92 % 1013,8 hPa 0,0 l/m 0,0 km/h (0 Bft) S-SO 157 0 min 8,8 C 11,8 C 0,0 km/h (0 Bft)
29.08.2021 03:10 10,5 C 17,9 C 11,5 C 11,9 C 11,9 C 1,4 C 89 % 92 % 1013,8 hPa 0,0 l/m 0,0 km/h (0 Bft) S-SO 157 0 min 8,8 C 11,9 C 0,0 km/h (0 Bft)
29.08.2021 03:15 10,7 C 17,9 C 11,6 C 11,9 C 11,9 C 1,2 C 89 % 92 % 1014,2 hPa 0,0 l/m 0,0 km/h (0 Bft) S-SO 157 0 min 9,0 C 11,9 C 0,0 km/h (0 Bft)
29.08.2021 03:20 10,7 C 17,9 C 11,6 C 11,9 C 11,9 C 1,2 C 89 % 92 % 1014,2 hPa 0,0 l/m 0,0 km/h (0 Bft) S-SO 157 0 min 9,0 C 11,9 C 0,0 km/h (0 Bft)
29.08.2021 03:25 10,7 C 17,9 C 11,7 C 11,9 C 11,9 C 1,2 C 89 % 92 % 1014,2 hPa 0,0 l/m 0,0 km/h (0 Bft) S-SO 157 0 min 9,0 C 11,9 C 0,0 km/h (0 Bft)
29.08.2021 03:30 10,7 C 17,9 C 11,7 C 12,0 C 12,0 C 1,3 C 89 % 92 % 1014,2 hPa 0,0 l/m 0,0 km/h (0 Bft) S-SO 157 0 min 9,0 C 12,0 C 0,0 km/h (0 Bft)
29.08.2021 03:35 10,8 C 17,9 C 11,7 C 12,0 C 12,0 C 1,2 C 89 % 92 % 1014,0 hPa 0,0 l/m 0,0 km/h (0 Bft) S-SO 157 0 min 9,1 C 12,0 C 0,0 km/h (0 Bft)
29.08.2021 03:40 10,8 C 17,9 C 11,7 C 12,1 C 12,1 C 1,3 C 89 % 92 % 1014,0 hPa 0,0 l/m 0,0 km/h (0 Bft) SO 135 0 min 9,1 C 12,1 C 0,0 km/h (0 Bft)
29.08.2021 03:45 10,9 C 17,9 C 11,8 C 12,1 C 12,1 C 1,2 C 89 % 92 % 1014,0 hPa 0,0 l/m 0,0 km/h (0 Bft) O-NO 67 0 min 9,2 C 12,1 C 0,0 km/h (0 Bft)
29.08.2021 03:50 10,9 C 17,9 C 11,8 C 12,1 C 12,1 C 1,2 C 89 % 91 % 1014,0 hPa 0,0 l/m 0,0 km/h (0 Bft) O-NO 67 0 min 9,2 C 12,1 C 0,0 km/h (0 Bft)
29.08.2021 03:55 11,0 C 17,9 C 11,8 C 12,1 C 12,1 C 1,1 C 89 % 92 % 1014,2 hPa 0,0 l/m 0,0 km/h (0 Bft) O-NO 67 0 min 9,3 C 12,1 C 0,0 km/h (0 Bft)
29.08.2021 04:00 10,9 C 17,9 C 11,9 C 12,1 C 12,1 C 1,2 C 89 % 91 % 1014,2 hPa 0,0 l/m 0,0 km/h (0 Bft) SO 135 0 min 9,2 C 12,1 C 0,0 km/h (0 Bft)
29.08.2021 04:05 11,1 C 17,9 C 11,9 C 12,2 C 12,2 C 1,1 C 89 % 91 % 1014,2 hPa 0,0 l/m 0,0 km/h (0 Bft) W 270 0 min 9,4 C 12,2 C 0,0 km/h (0 Bft)
29.08.2021 04:10 11,1 C 17,9 C 11,9 C 12,2 C 12,2 C 1,1 C 89 % 91 % 1014,2 hPa 0,0 l/m 0,0 km/h (0 Bft) W 270 0 min 9,4 C 12,2 C 0,0 km/h (0 Bft)
29.08.2021 04:15 11,1 C 17,9 C 11,9 C 12,2 C 12,2 C 1,1 C 89 % 91 % 1014,1 hPa 0,0 l/m 0,0 km/h (0 Bft) W 270 0 min 9,4 C 12,2 C 0,0 km/h (0 Bft)
29.08.2021 04:20 11,1 C 17,9 C 11,9 C 12,2 C 12,2 C 1,1 C 89 % 91 % 1014,1 hPa 0,0 l/m 0,0 km/h (0 Bft) W-SW 247 0 min 9,4 C 12,2 C 0,0 km/h (0 Bft)
29.08.2021 04:25 11,1 C 17,9 C 12,0 C 12,2 C 12,2 C 1,1 C 89 % 91 % 1014,1 hPa 0,0 l/m 0,0 km/h (0 Bft) S 180 0 min 9,4 C 12,2 C 0,0 km/h (0 Bft)
29.08.2021 04:30 11,1 C 17,9 C 12,0 C 12,2 C 12,2 C 1,1 C 89 % 91 % 1014,1 hPa 0,0 l/m 0,0 km/h (0 Bft) S 180 0 min 9,4 C 12,2 C 0,0 km/h (0 Bft)
29.08.2021 04:35 11,2 C 17,9 C 12,0 C 12,2 C 12,2 C 1,0 C 89 % 91 % 1013,9 hPa 0,0 l/m 0,0 km/h (0 Bft) S 180 0 min 9,5 C 12,2 C 0,0 km/h (0 Bft)
29.08.2021 04:40 11,2 C 17,9 C 12,0 C 12,2 C 12,2 C 1,0 C 89 % 91 % 1013,9 hPa 0,0 l/m 0,0 km/h (0 Bft) S 180 0 min 9,5 C 12,2 C 0,0 km/h (0 Bft)
29.08.2021 04:45 11,3 C 17,9 C 12,1 C 12,2 C 12,2 C 0,9 C 89 % 91 % 1013,9 hPa 0,0 l/m 0,0 km/h (0 Bft) S 180 0 min 9,6 C 12,2 C 0,0 km/h (0 Bft)
29.08.2021 04:50 11,3 C 17,9 C 12,0 C 12,3 C 12,3 C 1,0 C 88 % 91 % 1013,9 hPa 0,0 l/m 0,0 km/h (0 Bft) S 180 0 min 9,4 C 12,3 C 0,0 km/h (0 Bft)
29.08.2021 04:55 11,2 C 17,9 C 12,0 C 12,2 C 12,2 C 1,0 C 89 % 91 % 1013,9 hPa 0,0 l/m 0,0 km/h (0 Bft) S-SW 202 0 min 9,5 C 12,2 C 0,0 km/h (0 Bft)
29.08.2021 05:00 11,3 C 17,9 C 12,1 C 12,2 C 12,2 C 0,9 C 89 % 91 % 1013,9 hPa 0,0 l/m 0,0 km/h (0 Bft) S-SW 202 0 min 9,6 C 12,2 C 0,0 km/h (0 Bft)
29.08.2021 05:05 11,3 C 17,9 C 12,0 C 12,2 C 12,2 C 0,9 C 88 % 91 % 1013,9 hPa 0,0 l/m 0,0 km/h (0 Bft) S-SO 157 0 min 9,4 C 12,2 C 0,0 km/h (0 Bft)
29.08.2021 05:10 11,2 C 17,9 C 12,0 C 12,2 C 12,2 C 1,0 C 89 % 91 % 1013,9 hPa 0,0 l/m 0,0 km/h (0 Bft) SO 135 0 min 9,5 C 12,2 C 0,0 km/h (0 Bft)
29.08.2021 05:15 11,3 C 17,9 C 12,0 C 12,1 C 12,1 C 0,8 C 88 % 91 % 1013,5 hPa 0,0 l/m 0,0 km/h (0 Bft) S-SW 202 0 min 9,4 C 12,1 C 0,0 km/h (0 Bft)
29.08.2021 05:20 11,2 C 17,9 C 12,0 C 12,1 C 12,1 C 0,9 C 89 % 91 % 1013,5 hPa 0,0 l/m 0,0 km/h (0 Bft) S 180 0 min 9,5 C 12,1 C 0,0 km/h (0 Bft)
29.08.2021 05:25 11,3 C 18,0 C 11,9 C 11,8 C 11,8 C 0,5 C 89 % 91 % 1013,5 hPa 0,0 l/m 0,0 km/h (0 Bft) SO 135 0 min 9,6 C 11,8 C 0,0 km/h (0 Bft)
29.08.2021 05:30 11,2 C 18,0 C 11,9 C 11,7 C 11,7 C 0,5 C 88 % 92 % 1013,5 hPa 0,0 l/m 0,0 km/h (0 Bft) SO 135 0 min 9,3 C 11,7 C 0,0 km/h (0 Bft)
29.08.2021 05:35 11,1 C 18,0 C 11,8 C 11,7 C 11,7 C 0,6 C 89 % 92 % 1013,8 hPa 0,0 l/m 0,0 km/h (0 Bft) SO 135 0 min 9,4 C 11,7 C 0,0 km/h (0 Bft)
29.08.2021 05:40 11,1 C 18,0 C 11,8 C 11,8 C 11,8 C 0,7 C 89 % 91 % 1013,8 hPa 0,0 l/m 0,0 km/h (0 Bft) SO 135 0 min 9,4 C 11,8 C 0,0 km/h (0 Bft)
29.08.2021 05:45 11,1 C 18,0 C 11,9 C 11,9 C 11,9 C 0,8 C 89 % 91 % 1013,8 hPa 0,0 l/m 0,0 km/h (0 Bft) SO 135 0 min 9,4 C 11,9 C 0,0 km/h (0 Bft)
29.08.2021 05:50 11,1 C 18,0 C 11,9 C 11,9 C 11,9 C 0,8 C 88 % 91 % 1013,8 hPa 0,0 l/m 0,0 km/h (0 Bft) SO 135 0 min 9,2 C 11,9 C 0,0 km/h (0 Bft)
29.08.2021 05:55 11,1 C 18,0 C 11,8 C 11,9 C 11,9 C 0,8 C 89 % 92 % 1013,5 hPa 0,0 l/m 0,0 km/h (0 Bft) SO 135 0 min 9,4 C 11,9 C 0,0 km/h (0 Bft)
29.08.2021 06:00 11,1 C 18,0 C 11,9 C 11,9 C 11,9 C 0,8 C 89 % 91 % 1013,5 hPa 0,0 l/m 0,0 km/h (0 Bft) SO 135 0 min 9,4 C 11,9 C 0,0 km/h (0 Bft)
29.08.2021 06:05 11,0 C 18,0 C 11,9 C 11,9 C 11,9 C 0,9 C 89 % 91 % 1013,5 hPa 0,0 l/m 0,0 km/h (0 Bft) SO 135 0 min 9,3 C 11,9 C 0,0 km/h (0 Bft)
29.08.2021 06:10 11,0 C 18,0 C 11,9 C 12,0 C 12,0 C 1,0 C 89 % 91 % 1013,5 hPa 0,0 l/m 0,0 km/h (0 Bft) W 270 0 min 9,3 C 12,0 C 0,0 km/h (0 Bft)
29.08.2021 06:15 11,0 C 18,0 C 11,9 C 12,1 C 12,1 C 1,1 C 89 % 91 % 1013,6 hPa 0,0 l/m 0,0 km/h (0 Bft) W 270 0 min 9,3 C 12,1 C 0,0 km/h (0 Bft)
29.08.2021 06:20 11,0 C 18,0 C 11,9 C 12,1 C 12,1 C 1,1 C 89 % 91 % 1013,6 hPa 0,0 l/m 0,0 km/h (0 Bft) W 270 0 min 9,3 C 12,1 C 0,0 km/h (0 Bft)
29.08.2021 06:25 11,1 C 18,0 C 12,0 C 12,2 C 12,2 C 1,1 C 89 % 91 % 1013,6 hPa 0,0 l/m 0,0 km/h (0 Bft) W 270 0 min 9,4 C 12,2 C 0,0 km/h (0 Bft)
29.08.2021 06:30 11,1 C 18,0 C 12,0 C 12,2 C 12,2 C 1,1 C 89 % 91 % 1013,6 hPa 0,0 l/m 0,0 km/h (0 Bft) W 270 5 min 9,4 C 12,2 C 0,0 km/h (0 Bft)
29.08.2021 06:35 11,1 C 18,0 C 12,0 C 12,2 C 12,2 C 1,1 C 89 % 91 % 1013,9 hPa 0,0 l/m 0,0 km/h (0 Bft) W 270 5 min 9,4 C 12,2 C 0,0 km/h (0 Bft)
29.08.2021 06:40 11,2 C 18,0 C 12,0 C 12,3 C 12,3 C 1,1 C 89 % 91 % 1013,9 hPa 0,0 l/m 0,0 km/h (0 Bft) W 270 5 min 9,5 C 12,3 C 0,0 km/h (0 Bft)
29.08.2021 06:45 11,2 C 18,0 C 12,0 C 12,2 C 12,2 C 1,0 C 89 % 91 % 1013,9 hPa 0,0 l/m 0,0 km/h (0 Bft) W 270 5 min 9,5 C 12,2 C 0,0 km/h (0 Bft)
29.08.2021 06:50 11,2 C 18,0 C 12,1 C 12,2 C 12,2 C 1,0 C 89 % 91 % 1013,9 hPa 0,0 l/m 0,0 km/h (0 Bft) W 270 5 min 9,5 C 12,2 C 0,0 km/h (0 Bft)
29.08.2021 06:55 11,2 C 18,0 C 12,1 C 12,3 C 12,3 C 1,1 C 89 % 91 % 1013,6 hPa 0,0 l/m 0,0 km/h (0 Bft) W 270 5 min 9,5 C 12,3 C 0,0 km/h (0 Bft)
29.08.2021 07:00 11,3 C 18,0 C 12,1 C 12,4 C 12,4 C 1,1 C 89 % 91 % 1013,6 hPa 0,0 l/m 0,0 km/h (0 Bft) W 270 5 min 9,6 C 12,4 C 0,0 km/h (0 Bft)
29.08.2021 07:05 11,2 C 18,0 C 12,2 C 12,4 C 12,4 C 1,2 C 89 % 91 % 1013,6 hPa 0,0 l/m 0,0 km/h (0 Bft) W 270 5 min 9,5 C 12,4 C 0,0 km/h (0 Bft)
29.08.2021 07:10 11,2 C 18,0 C 12,2 C 12,4 C 12,4 C 1,2 C 89 % 91 % 1013,6 hPa 0,0 l/m 0,0 km/h (0 Bft) W 270 0 min 9,5 C 12,4 C 0,0 km/h (0 Bft)
29.08.2021 07:15 11,4 C 18,0 C 12,4 C 12,9 C 12,9 C 1,5 C 89 % 91 % 1013,6 hPa 0,0 l/m 0,0 km/h (0 Bft) W 270 5 min 9,7 C 12,9 C 0,0 km/h (0 Bft)
29.08.2021 07:20 11,5 C 18,0 C 12,5 C 13,0 C 13,0 C 1,5 C 89 % 91 % 1013,6 hPa 0,0 l/m 0,0 km/h (0 Bft) W-SW 247 5 min 9,8 C 13,0 C 0,0 km/h (0 Bft)
29.08.2021 07:25 11,5 C 17,9 C 12,7 C 13,4 C 13,4 C 1,9 C 89 % 91 % 1013,6 hPa 0,0 l/m 0,0 km/h (0 Bft) S-SW 202 5 min 9,8 C 13,4 C 0,0 km/h (0 Bft)
29.08.2021 07:30 11,7 C 17,9 C 12,7 C 13,6 C 13,6 C 1,9 C 89 % 91 % 1013,6 hPa 0,0 l/m 0,0 km/h (0 Bft) S 180 5 min 9,9 C 13,6 C 0,0 km/h (0 Bft)
29.08.2021 07:35 11,7 C 17,9 C 12,7 C 13,8 C 13,8 C 2,1 C 89 % 91 % 1013,5 hPa 0,0 l/m 0,0 km/h (0 Bft) S 180 5 min 9,9 C 13,8 C 0,0 km/h (0 Bft)
29.08.2021 07:40 11,9 C 17,9 C 12,7 C 13,8 C 13,8 C 1,9 C 88 % 91 % 1013,5 hPa 0,0 l/m 0,0 km/h (0 Bft) W-SW 247 0 min 10,0 C 13,8 C 0,0 km/h (0 Bft)
29.08.2021 07:45 11,9 C 17,9 C 12,7 C 13,8 C 13,8 C 1,9 C 88 % 91 % 1013,5 hPa 0,0 l/m 0,0 km/h (0 Bft) S-SW 202 0 min 10,0 C 13,8 C 0,0 km/h (0 Bft)
29.08.2021 07:50 11,9 C 17,9 C 12,7 C 13,7 C 13,7 C 1,8 C 88 % 91 % 1013,5 hPa 0,0 l/m 0,0 km/h (0 Bft) S-SW 202 0 min 10,0 C 13,7 C 0,0 km/h (0 Bft)
29.08.2021 07:55 12,0 C 17,9 C 12,7 C 13,7 C 13,7 C 1,7 C 89 % 91 % 1013,6 hPa 0,0 l/m 0,0 km/h (0 Bft) W 270 0 min 10,2 C 13,7 C 0,0 km/h (0 Bft)
29.08.2021 08:00 12,0 C 17,9 C 12,8 C 13,8 C 13,8 C 1,8 C 89 % 91 % 1013,6 hPa 0,0 l/m 0,0 km/h (0 Bft) S-SW 202 0 min 10,2 C 13,8 C 0,0 km/h (0 Bft)
29.08.2021 08:05 12,1 C 17,9 C 12,9 C 13,7 C 13,7 C 1,6 C 89 % 91 % 1013,6 hPa 0,0 l/m 0,0 km/h (0 Bft) SO 135 0 min 10,3 C 13,7 C 0,0 km/h (0 Bft)
29.08.2021 08:10 12,1 C 17,9 C 12,9 C 13,7 C 13,7 C 1,6 C 89 % 91 % 1013,6 hPa 0,0 l/m 0,0 km/h (0 Bft) SO 135 0 min 10,3 C 13,7 C 0,0 km/h (0 Bft)
29.08.2021 08:15 12,3 C 17,9 C 12,9 C 13,8 C 13,8 C 1,5 C 89 % 91 % 1013,7 hPa 0,0 l/m 0,0 km/h (0 Bft) S 180 0 min 10,5 C 13,8 C 0,0 km/h (0 Bft)
29.08.2021 08:20 12,3 C 17,9 C 12,9 C 13,8 C 13,8 C 1,5 C 88 % 91 % 1013,7 hPa 0,0 l/m 0,0 km/h (0 Bft) SW 225 0 min 10,4 C 13,8 C 0,0 km/h (0 Bft)
29.08.2021 08:25 12,2 C 17,9 C 12,9 C 13,8 C 13,8 C 1,6 C 88 % 91 % 1013,7 hPa 0,0 l/m 0,0 km/h (0 Bft) NW 315 0 min 10,3 C 13,8 C 0,0 km/h (0 Bft)
29.08.2021 08:30 12,3 C 17,9 C 13,0 C 13,8 C 13,8 C 1,5 C 89 % 91 % 1013,7 hPa 0,0 l/m 0,0 km/h (0 Bft) N-NW 337 0 min 10,5 C 13,8 C 0,0 km/h (0 Bft)
29.08.2021 08:35 12,3 C 17,9 C 13,0 C 14,0 C 14,0 C 1,7 C 88 % 91 % 1013,5 hPa 0,0 l/m 0,0 km/h (0 Bft) S-SW 202 0 min 10,4 C 14,0 C 0,0 km/h (0 Bft)
29.08.2021 08:40 12,3 C 17,9 C 13,0 C 13,9 C 13,9 C 1,6 C 88 % 91 % 1013,5 hPa 0,0 l/m 0,0 km/h (0 Bft) S-SW 202 0 min 10,4 C 13,9 C 0,0 km/h (0 Bft)
29.08.2021 08:45 12,5 C 18,0 C 13,1 C 14,0 C 14,0 C 1,5 C 88 % 91 % 1013,5 hPa 0,0 l/m 0,0 km/h (0 Bft) O-SO 112 0 min 10,6 C 14,0 C 0,0 km/h (0 Bft)
29.08.2021 08:50 12,4 C 18,0 C 13,1 C 14,0 C 14,0 C 1,6 C 89 % 91 % 1013,5 hPa 0,0 l/m 0,0 km/h (0 Bft) S 180 0 min 10,6 C 14,0 C 0,0 km/h (0 Bft)
29.08.2021 08:55 12,5 C 18,0 C 13,1 C 13,9 C 13,9 C 1,4 C 88 % 91 % 1012,9 hPa 0,0 l/m 0,0 km/h (0 Bft) O-SO 112 0 min 10,6 C 13,9 C 0,0 km/h (0 Bft)
29.08.2021 09:00 12,4 C 18,0 C 13,1 C 13,9 C 13,9 C 1,5 C 88 % 91 % 1012,9 hPa 0,0 l/m 0,0 km/h (0 Bft) SO 135 0 min 10,5 C 13,9 C 0,0 km/h (0 Bft)
29.08.2021 09:05 12,5 C 18,0 C 13,2 C 14,1 C 14,1 C 1,6 C 88 % 91 % 1012,9 hPa 0,0 l/m 0,0 km/h (0 Bft) S-SW 202 0 min 10,6 C 14,1 C 0,0 km/h (0 Bft)
29.08.2021 09:10 12,5 C 18,0 C 13,3 C 14,2 C 14,2 C 1,7 C 89 % 91 % 1012,9 hPa 0,0 l/m 0,0 km/h (0 Bft) S-SW 202 0 min 10,7 C 14,2 C 0,0 km/h (0 Bft)
29.08.2021 09:15 12,6 C 18,0 C 13,3 C 14,3 C 14,3 C 1,7 C 88 % 91 % 1013,1 hPa 0,0 l/m 0,0 km/h (0 Bft) S-SO 157 0 min 10,7 C 14,3 C 0,0 km/h (0 Bft)
29.08.2021 09:20 12,7 C 18,0 C 13,4 C 14,2 C 14,2 C 1,5 C 88 % 91 % 1013,1 hPa 0,0 l/m 0,0 km/h (0 Bft) S 180 0 min 10,8 C 14,2 C 0,0 km/h (0 Bft)
29.08.2021 09:25 12,7 C 18,0 C 13,3 C 14,2 C 14,2 C 1,5 C 88 % 91 % 1013,1 hPa 0,0 l/m 0,0 km/h (0 Bft) S 180 0 min 10,8 C 14,2 C 0,0 km/h (0 Bft)
29.08.2021 09:30 12,7 C 18,0 C 13,4 C 14,3 C 14,3 C 1,6 C 88 % 91 % 1013,1 hPa 0,0 l/m 0,0 km/h (0 Bft) S-SO 157 0 min 10,8 C 14,3 C 0,0 km/h (0 Bft)
29.08.2021 09:35 12,6 C 18,0 C 13,4 C 14,4 C 14,4 C 1,8 C 88 % 91 % 1013,3 hPa 0,0 l/m 0,0 km/h (0 Bft) S-SO 157 0 min 10,7 C 14,4 C 0,0 km/h (0 Bft)
29.08.2021 09:40 12,7 C 18,0 C 13,5 C 14,6 C 14,6 C 1,9 C 88 % 91 % 1013,3 hPa 0,0 l/m 0,0 km/h (0 Bft) S 180 0 min 10,8 C 14,6 C 0,0 km/h (0 Bft)
29.08.2021 09:45 12,8 C 18,0 C 13,4 C 14,7 C 14,7 C 1,9 C 88 % 91 % 1013,3 hPa 0,0 l/m 0,0 km/h (0 Bft) S-SO 157 0 min 10,9 C 14,7 C 0,0 km/h (0 Bft)
29.08.2021 09:50 12,8 C 18,0 C 13,5 C 14,8 C 14,8 C 2,0 C 88 % 91 % 1013,3 hPa 0,0 l/m 0,0 km/h (0 Bft) SO 135 0 min 10,9 C 14,8 C 0,0 km/h (0 Bft)
29.08.2021 09:55 12,9 C 18,0 C 13,6 C 15,0 C 15,0 C 2,1 C 88 % 91 % 1013,3 hPa 0,0 l/m 0,0 km/h (0 Bft) S 180 0 min 11,0 C 15,0 C 0,0 km/h (0 Bft)
29.08.2021 10:00 12,8 C 18,0 C 13,6 C 15,1 C 15,1 C 2,3 C 88 % 91 % 1013,3 hPa 0,0 l/m 0,0 km/h (0 Bft) S 180 0 min 10,9 C 15,1 C 0,0 km/h (0 Bft)
29.08.2021 10:05 12,8 C 18,0 C 13,6 C 15,2 C 15,2 C 2,4 C 88 % 91 % 1013,3 hPa 0,0 l/m 0,0 km/h (0 Bft) SW 225 0 min 10,9 C 15,2 C 0,0 km/h (0 Bft)
29.08.2021 10:10 12,8 C 18,1 C 13,7 C 15,2 C 15,2 C 2,4 C 88 % 91 % 1013,3 hPa 0,0 l/m 0,0 km/h (0 Bft) S 180 0 min 10,9 C 15,2 C 0,0 km/h (0 Bft)
29.08.2021 10:15 12,9 C 18,1 C 13,7 C 15,4 C 15,4 C 2,5 C 88 % 91 % 1013,3 hPa 0,0 l/m 0,0 km/h (0 Bft) SW 225 0 min 11,0 C 15,4 C 0,0 km/h (0 Bft)
29.08.2021 10:20 12,9 C 18,1 C 13,7 C 15,5 C 15,5 C 2,6 C 88 % 91 % 1013,3 hPa 0,0 l/m 0,0 km/h (0 Bft) S-SW 202 0 min 11,0 C 15,5 C 0,0 km/h (0 Bft)
29.08.2021 10:25 12,8 C 18,1 C 13,7 C 15,5 C 15,5 C 2,7 C 88 % 91 % 1013,3 hPa 0,0 l/m 0,0 km/h (0 Bft) S 180 0 min 10,9 C 15,5 C 0,0 km/h (0 Bft)
29.08.2021 10:30 12,9 C 18,1 C 13,7 C 15,6 C 15,6 C 2,7 C 88 % 91 % 1013,3 hPa 0,0 l/m 0,0 km/h (0 Bft) S 180 0 min 11,0 C 15,6 C 0,0 km/h (0 Bft)
29.08.2021 10:35 12,8 C 18,1 C 13,7 C 15,6 C 15,6 C 2,8 C 88 % 91 % 1013,4 hPa 0,0 l/m 0,0 km/h (0 Bft) SW 225 0 min 10,9 C 15,6 C 0,0 km/h (0 Bft)
29.08.2021 10:40 12,8 C 18,1 C 13,8 C 15,6 C 15,6 C 2,8 C 88 % 91 % 1013,4 hPa 0,0 l/m 0,0 km/h (0 Bft) SW 225 0 min 10,9 C 15,6 C 0,0 km/h (0 Bft)
29.08.2021 10:45 12,8 C 18,1 C 13,8 C 15,6 C 15,6 C 2,8 C 88 % 91 % 1013,4 hPa 0,0 l/m 0,0 km/h (0 Bft) SW 225 0 min 10,9 C 15,6 C 0,0 km/h (0 Bft)
29.08.2021 10:50 12,8 C 18,1 C 13,8 C 15,5 C 15,5 C 2,7 C 88 % 91 % 1013,4 hPa 0,0 l/m 0,0 km/h (0 Bft) S 180 0 min 10,9 C 15,5 C 0,0 km/h (0 Bft)
29.08.2021 10:55 12,9 C 18,1 C 13,8 C 15,4 C 15,4 C 2,5 C 88 % 91 % 1013,4 hPa 0,0 l/m 0,0 km/h (0 Bft) NW 315 0 min 11,0 C 15,4 C 1,9 km/h (1 Bft)
29.08.2021 11:00 12,9 C 18,1 C 13,8 C 15,2 C 15,2 C 2,3 C 88 % 91 % 1013,4 hPa 0,0 l/m 0,2 km/h (0 Bft) SW 225 0 min 11,0 C 15,2 C 1,8 km/h (1 Bft)
29.08.2021 11:05 12,9 C 18,1 C 13,8 C 15,1 C 15,1 C 2,2 C 88 % 91 % 1013,4 hPa 0,0 l/m 0,0 km/h (0 Bft) O-NO 67 0 min 11,0 C 15,1 C 0,0 km/h (0 Bft)
29.08.2021 11:10 12,9 C 18,1 C 13,8 C 15,1 C 15,1 C 2,2 C 88 % 91 % 1013,4 hPa 0,0 l/m 0,0 km/h (0 Bft) W-NW 292 0 min 11,0 C 15,1 C 0,0 km/h (0 Bft)
29.08.2021 11:15 13,1 C 18,1 C 13,8 C 15,2 C 15,2 C 2,1 C 88 % 91 % 1013,0 hPa 0,0 l/m 0,0 km/h (0 Bft) S 180 0 min 11,2 C 15,2 C 0,0 km/h (0 Bft)
29.08.2021 11:20 13,0 C 18,1 C 13,9 C 15,3 C 15,3 C 2,3 C 88 % 92 % 1013,0 hPa 0,0 l/m 0,0 km/h (0 Bft) S 180 0 min 11,1 C 15,3 C 0,0 km/h (0 Bft)
29.08.2021 11:25 13,1 C 18,2 C 13,9 C 15,4 C 15,4 C 2,3 C 88 % 92 % 1013,0 hPa 0,0 l/m 0,0 km/h (0 Bft) SW 225 0 min 11,2 C 15,4 C 0,0 km/h (0 Bft)
29.08.2021 11:30 13,1 C 18,2 C 14,0 C 15,6 C 15,6 C 2,5 C 88 % 92 % 1013,0 hPa 0,0 l/m 0,0 km/h (0 Bft) W 270 0 min 11,2 C 15,6 C 0,0 km/h (0 Bft)
29.08.2021 11:35 13,1 C 18,2 C 14,1 C 15,8 C 15,8 C 2,7 C 88 % 91 % 1012,9 hPa 0,0 l/m 0,0 km/h (0 Bft) S 180 0 min 11,2 C 15,8 C 0,0 km/h (0 Bft)
29.08.2021 11:40 13,2 C 18,2 C 14,1 C 15,8 C 15,8 C 2,6 C 88 % 92 % 1012,9 hPa 0,0 l/m 0,0 km/h (0 Bft) O-NO 67 0 min 11,3 C 15,8 C 0,0 km/h (0 Bft)
29.08.2021 11:45 13,2 C 18,2 C 14,2 C 16,0 C 16,0 C 2,8 C 88 % 92 % 1012,9 hPa 0,0 l/m 0,0 km/h (0 Bft) NW 315 0 min 11,3 C 16,0 C 0,0 km/h (0 Bft)
29.08.2021 11:50 13,2 C 18,2 C 14,3 C 16,2 C 16,2 C 3,0 C 88 % 92 % 1012,9 hPa 0,0 l/m 0,0 km/h (0 Bft) W-SW 247 0 min 11,3 C 16,2 C 0,0 km/h (0 Bft)
29.08.2021 11:55 13,3 C 18,2 C 14,3 C 16,5 C 16,5 C 3,2 C 88 % 91 % 1012,8 hPa 0,0 l/m 0,0 km/h (0 Bft) SW 225 0 min 11,4 C 16,5 C 0,0 km/h (0 Bft)
29.08.2021 12:00 13,4 C 18,2 C 14,3 C 16,6 C 16,6 C 3,2 C 88 % 92 % 1012,8 hPa 0,0 l/m 0,0 km/h (0 Bft) O-SO 112 0 min 11,5 C 16,6 C 0,0 km/h (0 Bft)
29.08.2021 12:05 13,4 C 18,2 C 14,4 C 16,8 C 16,8 C 3,4 C 88 % 92 % 1012,8 hPa 0,0 l/m 0,0 km/h (0 Bft) SW 225 5 min 11,5 C 16,8 C 0,0 km/h (0 Bft)
29.08.2021 12:10 13,4 C 18,2 C 14,5 C 17,0 C 17,0 C 3,6 C 88 % 92 % 1012,8 hPa 0,0 l/m 0,0 km/h (0 Bft) SW 225 5 min 11,5 C 17,0 C 0,0 km/h (0 Bft)
29.08.2021 12:15 13,5 C 18,2 C 14,7 C 17,7 C 17,7 C 4,2 C 88 % 92 % 1012,7 hPa 0,0 l/m 0,0 km/h (0 Bft) SO 135 5 min 11,6 C 17,7 C 0,0 km/h (0 Bft)
29.08.2021 12:20 13,5 C 18,2 C 14,8 C 18,2 C 18,2 C 4,7 C 88 % 91 % 1012,7 hPa 0,0 l/m 0,0 km/h (0 Bft) W-SW 247 5 min 11,6 C 18,2 C 0,0 km/h (0 Bft)
29.08.2021 12:25 13,6 C 18,2 C 15,1 C 19,2 C 19,2 C 5,6 C 88 % 91 % 1012,7 hPa 0,0 l/m 0,0 km/h (0 Bft) SW 225 5 min 11,6 C 19,2 C 2,9 km/h (1 Bft)
29.08.2021 12:30 13,6 C 18,2 C 15,1 C 20,1 C 20,1 C 6,5 C 88 % 92 % 1012,7 hPa 0,0 l/m 0,3 km/h (0 Bft) W 270 5 min 11,6 C 20,1 C 0,0 km/h (0 Bft)
29.08.2021 12:35 13,6 C 18,2 C 15,3 C 21,2 C 21,2 C 7,6 C 88 % 92 % 1012,5 hPa 0,0 l/m 0,3 km/h (0 Bft) O-SO 112 5 min 11,6 C 21,2 C 0,0 km/h (0 Bft)
29.08.2021 12:40 13,9 C 18,2 C 15,3 C 22,1 C 22,1 C 8,2 C 88 % 92 % 1012,5 hPa 0,0 l/m 0,3 km/h (0 Bft) W-SW 247 5 min 11,9 C 22,1 C 0,0 km/h (0 Bft)
29.08.2021 12:45 13,8 C 18,2 C 15,3 C 21,6 C 21,6 C 7,8 C 88 % 92 % 1012,5 hPa 0,0 l/m 0,3 km/h (0 Bft) W-SW 247 5 min 11,8 C 21,6 C 3,4 km/h (1 Bft)
29.08.2021 12:50 13,9 C 18,1 C 15,5 C 21,7 C 21,7 C 7,8 C 88 % 92 % 1012,5 hPa 0,0 l/m 0,2 km/h (0 Bft) S 180 5 min 11,9 C 21,7 C 1,8 km/h (1 Bft)
29.08.2021 12:55 13,9 C 18,2 C 15,7 C 22,0 C 22,0 C 8,1 C 88 % 92 % 1012,4 hPa 0,0 l/m 0,2 km/h (0 Bft) SW 225 5 min 11,9 C 22,0 C 0,0 km/h (0 Bft)
29.08.2021 13:00 14,0 C 18,1 C 15,9 C 22,4 C 22,4 C 8,4 C 88 % 92 % 1012,4 hPa 0,0 l/m 0,2 km/h (0 Bft) S 180 5 min 12,0 C 22,4 C 0,0 km/h (0 Bft)
29.08.2021 13:05 14,1 C 18,1 C 16,0 C 23,3 C 23,3 C 9,2 C 88 % 92 % 1012,4 hPa 0,0 l/m 0,0 km/h (0 Bft) N-NW 337 5 min 12,1 C 23,3 C 0,0 km/h (0 Bft)
29.08.2021 13:10 14,1 C 18,1 C 16,0 C 23,3 C 23,3 C 9,2 C 88 % 92 % 1012,4 hPa 0,0 l/m 0,0 km/h (0 Bft) N-NW 337 5 min 12,1 C 23,3 C 0,0 km/h (0 Bft)
29.08.2021 13:15 14,3 C 18,1 C 16,1 C 24,3 C 24,3 C 10,0 C 87 % 93 % 1012,2 hPa 0,0 l/m 0,0 km/h (0 Bft) W-NW 292 5 min 12,2 C 24,3 C 0,0 km/h (0 Bft)
29.08.2021 13:20 14,3 C 18,1 C 16,2 C 24,4 C 24,4 C 10,1 C 87 % 93 % 1012,2 hPa 0,0 l/m 0,0 km/h (0 Bft) SW 225 5 min 12,2 C 24,4 C 0,0 km/h (0 Bft)
29.08.2021 13:25 14,3 C 18,1 C 16,3 C 25,2 C 25,2 C 10,9 C 87 % 93 % 1012,2 hPa 0,0 l/m 0,3 km/h (0 Bft) W-SW 247 5 min 12,2 C 25,2 C 0,0 km/h (0 Bft)
29.08.2021 13:30 14,3 C 18,1 C 16,3 C 25,0 C 25,0 C 10,7 C 87 % 93 % 1012,2 hPa 0,0 l/m 0,5 km/h (0 Bft) S-SW 202 5 min 12,2 C 25,0 C 0,0 km/h (0 Bft)
29.08.2021 13:35 14,3 C 18,1 C 16,4 C 24,9 C 24,9 C 10,6 C 88 % 93 % 1012,3 hPa 0,0 l/m 0,2 km/h (0 Bft) SW 225 5 min 12,3 C 24,9 C 0,0 km/h (0 Bft)
29.08.2021 13:40 14,4 C 18,1 C 16,5 C 25,0 C 25,0 C 10,6 C 88 % 93 % 1012,3 hPa 0,0 l/m 0,2 km/h (0 Bft) W-NW 292 5 min 12,4 C 25,0 C 0,0 km/h (0 Bft)
29.08.2021 13:45 14,4 C 18,1 C 16,7 C 26,2 C 26,2 C 11,8 C 87 % 93 % 1012,3 hPa 0,0 l/m 0,3 km/h (0 Bft) SW 225 5 min 12,3 C 26,2 C 5,1 km/h (1 Bft)
29.08.2021 13:50 14,5 C 18,1 C 17,2 C 26,5 C 26,5 C 12,0 C 87 % 93 % 1012,3 hPa 0,0 l/m 0,3 km/h (0 Bft) S 180 5 min 12,4 C 26,5 C 0,0 km/h (0 Bft)
29.08.2021 13:55 14,4 C 18,1 C 17,2 C 26,9 C 26,9 C 12,5 C 87 % 93 % 1012,1 hPa 0,0 l/m 0,3 km/h (0 Bft) S-SW 202 5 min 12,3 C 26,9 C 6,8 km/h (2 Bft)
29.08.2021 14:00 14,4 C 18,1 C 17,1 C 26,3 C 26,3 C 11,9 C 87 % 93 % 1012,1 hPa 0,0 l/m 0,3 km/h (0 Bft) SW 225 5 min 12,3 C 26,3 C 2,4 km/h (1 Bft)
29.08.2021 14:05 14,5 C 18,1 C 17,0 C 24,6 C 24,6 C 10,1 C 87 % 93 % 1012,1 hPa 0,0 l/m 0,3 km/h (0 Bft) SW 225 5 min 12,4 C 24,6 C 2,3 km/h (1 Bft)
29.08.2021 14:10 14,5 C 18,1 C 17,1 C 24,7 C 24,7 C 10,2 C 87 % 93 % 1012,1 hPa 0,0 l/m 0,6 km/h (0 Bft) W-SW 247 5 min 12,4 C 24,7 C 2,1 km/h (1 Bft)
29.08.2021 14:15 14,4 C 18,1 C 17,1 C 24,6 C 24,6 C 10,2 C 87 % 93 % 1012,3 hPa 0,0 l/m 0,8 km/h (0 Bft) W-SW 247 5 min 12,3 C 24,6 C 0,0 km/h (0 Bft)
29.08.2021 14:20 14,5 C 18,1 C 17,2 C 24,1 C 24,1 C 9,6 C 87 % 93 % 1012,3 hPa 0,0 l/m 1,0 km/h (0 Bft) S 180 5 min 12,4 C 24,1 C 1,8 km/h (1 Bft)
29.08.2021 14:25 14,5 C 18,1 C 17,2 C 24,9 C 24,9 C 10,4 C 87 % 94 % 1012,3 hPa 0,0 l/m 1,0 km/h (0 Bft) S-SW 202 5 min 12,4 C 24,9 C 0,0 km/h (0 Bft)
29.08.2021 14:30 14,5 C 18,1 C 17,0 C 24,4 C 24,4 C 9,9 C 87 % 94 % 1012,3 hPa 0,0 l/m 1,1 km/h (1 Bft) SW 225 5 min 12,4 C 24,4 C 0,0 km/h (0 Bft)
29.08.2021 14:35 14,5 C 18,2 C 17,2 C 24,7 C 24,7 C 10,2 C 87 % 94 % 1012,1 hPa 0,0 l/m 0,6 km/h (0 Bft) NW 315 5 min 12,4 C 24,7 C 0,0 km/h (0 Bft)
29.08.2021 14:40 14,7 C 18,2 C 17,5 C 25,9 C 25,9 C 11,2 C 87 % 94 % 1012,1 hPa 0,0 l/m 0,5 km/h (0 Bft) S 180 5 min 12,6 C 25,9 C 0,0 km/h (0 Bft)
29.08.2021 14:45 14,8 C 18,1 C 17,8 C 27,7 C 27,7 C 12,9 C 88 % 94 % 1012,1 hPa 0,0 l/m 0,3 km/h (0 Bft) S-SW 202 5 min 12,8 C 27,7 C 2,3 km/h (1 Bft)
29.08.2021 14:50 15,1 C 18,1 C 17,9 C 28,5 C 28,5 C 13,4 C 87 % 94 % 1012,1 hPa 0,0 l/m 0,5 km/h (0 Bft) S 180 5 min 13,0 C 28,5 C 4,0 km/h (1 Bft)
29.08.2021 14:55 15,2 C 18,1 C 18,1 C 28,3 C 28,3 C 13,1 C 87 % 94 % 1012,1 hPa 0,0 l/m 0,8 km/h (0 Bft) W-SW 247 5 min 13,0 C 28,3 C 2,6 km/h (1 Bft)
29.08.2021 15:00 15,3 C 18,1 C 18,2 C 28,3 C 28,3 C 13,0 C 87 % 94 % 1012,1 hPa 0,0 l/m 1,3 km/h (1 Bft) S 180 5 min 13,1 C 28,3 C 0,0 km/h (0 Bft)
29.08.2021 15:05 15,5 C 18,1 C 18,2 C 27,9 C 27,9 C 12,4 C 88 % 94 % 1012,1 hPa 0,0 l/m 1,8 km/h (1 Bft) W-SW 247 5 min 13,5 C 27,9 C 7,9 km/h (2 Bft)
29.08.2021 15:10 15,7 C 18,1 C 18,2 C 27,3 C 27,3 C 11,6 C 88 % 94 % 1012,1 hPa 0,0 l/m 1,3 km/h (1 Bft) SW 225 5 min 13,7 C 27,3 C 1,9 km/h (1 Bft)
29.08.2021 15:15 15,9 C 18,1 C 18,2 C 26,8 C 26,8 C 10,9 C 87 % 94 % 1012,2 hPa 0,0 l/m 1,0 km/h (0 Bft) S-SW 202 5 min 13,7 C 26,8 C 0,0 km/h (0 Bft)
29.08.2021 15:20 16,0 C 18,1 C 18,3 C 26,4 C 26,4 C 10,4 C 87 % 94 % 1012,2 hPa 0,0 l/m 1,3 km/h (1 Bft) W-SW 247 5 min 13,8 C 26,4 C 3,1 km/h (1 Bft)
29.08.2021 15:25 16,2 C 18,1 C 18,3 C 26,1 C 26,1 C 9,9 C 87 % 94 % 1012,2 hPa 0,0 l/m 1,4 km/h (1 Bft) W-SW 247 5 min 14,0 C 26,1 C 2,3 km/h (1 Bft)
29.08.2021 15:30 16,4 C 18,1 C 18,2 C 25,6 C 25,6 C 9,2 C 87 % 94 % 1012,2 hPa 0,0 l/m 1,3 km/h (1 Bft) S-SW 202 5 min 14,2 C 25,6 C 0,0 km/h (0 Bft)
29.08.2021 15:35 16,5 C 18,1 C 18,1 C 24,9 C 24,9 C 8,4 C 87 % 94 % 1011,8 hPa 0,0 l/m 1,1 km/h (1 Bft) SW 225 5 min 14,3 C 24,9 C 1,9 km/h (1 Bft)
29.08.2021 15:40 16,6 C 18,1 C 17,9 C 24,5 C 24,5 C 7,9 C 87 % 94 % 1011,8 hPa 0,0 l/m 0,6 km/h (0 Bft) W-NW 292 5 min 14,4 C 24,5 C 0,0 km/h (0 Bft)
29.08.2021 15:45 16,6 C 18,0 C 17,8 C 23,8 C 23,8 C 7,2 C 87 % 94 % 1011,8 hPa 0,0 l/m 0,6 km/h (0 Bft) S-SW 202 5 min 14,4 C 23,8 C 0,0 km/h (0 Bft)
29.08.2021 15:50 16,6 C 18,0 C 17,6 C 23,2 C 23,2 C 6,6 C 87 % 94 % 1011,8 hPa 0,0 l/m 0,6 km/h (0 Bft) W-SW 247 5 min 14,4 C 23,2 C 0,0 km/h (0 Bft)
29.08.2021 15:55 16,6 C 18,0 C 17,6 C 22,6 C 22,6 C 6,0 C 87 % 94 % 1012,1 hPa 0,0 l/m 0,5 km/h (0 Bft) W 270 5 min 14,4 C 22,6 C 1,9 km/h (1 Bft)
29.08.2021 16:00 16,7 C 17,9 C 17,6 C 22,4 C 22,4 C 5,7 C 87 % 94 % 1012,1 hPa 0,0 l/m 0,5 km/h (0 Bft) SW 225 5 min 14,5 C 22,4 C 1,6 km/h (1 Bft)
29.08.2021 16:05 16,7 C 17,9 C 17,3 C 21,8 C 21,8 C 5,1 C 86 % 94 % 1012,1 hPa 0,0 l/m 0,3 km/h (0 Bft) SW 225 5 min 14,3 C 21,8 C 0,0 km/h (0 Bft)
29.08.2021 16:10 16,7 C 17,9 C 17,2 C 21,4 C 21,4 C 4,7 C 86 % 94 % 1012,1 hPa 0,0 l/m 0,8 km/h (0 Bft) NW 315 5 min 14,3 C 21,4 C 2,4 km/h (1 Bft)
29.08.2021 16:15 16,7 C 17,9 C 17,2 C 21,0 C 21,0 C 4,3 C 86 % 94 % 1012,1 hPa 0,0 l/m 1,1 km/h (1 Bft) SW 225 5 min 14,3 C 21,0 C 2,1 km/h (1 Bft)
29.08.2021 16:20 16,7 C 17,8 C 17,1 C 20,8 C 20,8 C 4,1 C 86 % 94 % 1012,1 hPa 0,0 l/m 0,8 km/h (0 Bft) S-SW 202 5 min 14,3 C 20,8 C 3,4 km/h (1 Bft)
29.08.2021 16:25 16,7 C 17,8 C 17,1 C 20,9 C 20,9 C 4,2 C 86 % 94 % 1012,1 hPa 0,0 l/m 0,8 km/h (0 Bft) SW 225 5 min 14,3 C 20,9 C 0,0 km/h (0 Bft)
29.08.2021 16:30 16,7 C 17,7 C 17,0 C 20,8 C 20,8 C 4,1 C 86 % 94 % 1012,1 hPa 0,0 l/m 0,8 km/h (0 Bft) SW 225 5 min 14,3 C 20,8 C 2,1 km/h (1 Bft)
29.08.2021 16:35 16,7 C 17,6 C 16,9 C 20,4 C 20,4 C 3,7 C 86 % 94 % 1011,9 hPa 0,0 l/m 1,6 km/h (1 Bft) S 180 5 min 14,3 C 20,4 C 3,4 km/h (1 Bft)
29.08.2021 16:40 16,7 C 17,6 C 16,9 C 20,2 C 20,2 C 3,5 C 86 % 94 % 1011,9 hPa 0,0 l/m 1,9 km/h (1 Bft) W 270 5 min 14,3 C 20,2 C 1,6 km/h (1 Bft)
29.08.2021 16:45 16,7 C 17,7 C 16,9 C 20,1 C 20,1 C 3,4 C 86 % 94 % 1011,9 hPa 0,0 l/m 1,4 km/h (1 Bft) S-SW 202 5 min 14,3 C 20,1 C 0,0 km/h (0 Bft)
29.08.2021 16:50 16,8 C 17,7 C 16,9 C 20,1 C 20,1 C 3,3 C 86 % 94 % 1011,9 hPa 0,0 l/m 0,8 km/h (0 Bft) S 180 5 min 14,4 C 20,1 C 1,9 km/h (1 Bft)
29.08.2021 16:55 16,7 C 17,7 C 16,8 C 20,0 C 20,0 C 3,3 C 86 % 94 % 1011,9 hPa 0,0 l/m 0,5 km/h (0 Bft) SW 225 5 min 14,3 C 20,0 C 0,0 km/h (0 Bft)
29.08.2021 17:00 16,6 C 17,7 C 16,7 C 19,8 C 19,8 C 3,2 C 86 % 94 % 1011,9 hPa 0,0 l/m 0,8 km/h (0 Bft) S-SW 202 0 min 14,2 C 19,8 C 1,9 km/h (1 Bft)
29.08.2021 17:05 16,5 C 17,8 C 16,7 C 19,4 C 19,4 C 2,9 C 86 % 94 % 1011,9 hPa 0,0 l/m 0,5 km/h (0 Bft) S-SO 157 0 min 14,1 C 19,4 C 0,0 km/h (0 Bft)
29.08.2021 17:10 16,4 C 17,8 C 16,6 C 19,1 C 19,1 C 2,7 C 86 % 94 % 1011,9 hPa 0,0 l/m 0,6 km/h (0 Bft) S-SW 202 0 min 14,1 C 19,1 C 2,3 km/h (1 Bft)
29.08.2021 17:15 16,3 C 17,8 C 16,5 C 18,6 C 18,6 C 2,3 C 86 % 94 % 1011,8 hPa 0,0 l/m 0,6 km/h (0 Bft) W-SW 247 0 min 14,0 C 18,6 C 0,0 km/h (0 Bft)
29.08.2021 17:20 16,1 C 17,8 C 16,4 C 18,4 C 18,4 C 2,3 C 86 % 94 % 1011,8 hPa 0,0 l/m 0,6 km/h (0 Bft) SW 225 0 min 13,8 C 18,4 C 0,0 km/h (0 Bft)
29.08.2021 17:25 16,0 C 17,8 C 16,4 C 18,4 C 18,4 C 2,4 C 86 % 94 % 1011,8 hPa 0,0 l/m 0,2 km/h (0 Bft) W 270 0 min 13,7 C 18,4 C 0,0 km/h (0 Bft)
29.08.2021 17:30 16,1 C 17,8 C 16,4 C 18,4 C 18,4 C 2,3 C 86 % 94 % 1011,8 hPa 0,0 l/m 0,0 km/h (0 Bft) S 180 0 min 13,8 C 18,4 C 0,0 km/h (0 Bft)
29.08.2021 17:35 15,9 C 17,8 C 16,3 C 18,5 C 18,5 C 2,6 C 86 % 94 % 1011,9 hPa 0,0 l/m 0,0 km/h (0 Bft) SW 225 0 min 13,6 C 18,5 C 0,0 km/h (0 Bft)
29.08.2021 17:40 15,8 C 17,8 C 16,3 C 18,4 C 18,4 C 2,6 C 86 % 94 % 1011,9 hPa 0,0 l/m 0,2 km/h (0 Bft) W-SW 247 0 min 13,5 C 18,4 C 0,0 km/h (0 Bft)
29.08.2021 17:45 15,7 C 17,8 C 16,3 C 18,3 C 18,3 C 2,6 C 86 % 94 % 1011,9 hPa 0,0 l/m 0,0 km/h (0 Bft) SW 225 0 min 13,4 C 18,3 C 0,0 km/h (0 Bft)
29.08.2021 17:50 15,5 C 17,8 C 16,3 C 18,2 C 18,2 C 2,7 C 86 % 94 % 1011,9 hPa 0,0 l/m 0,2 km/h (0 Bft) W-SW 247 0 min 13,2 C 18,2 C 0,0 km/h (0 Bft)
29.08.2021 17:55 15,4 C 17,9 C 16,1 C 18,0 C 18,0 C 2,6 C 85 % 94 % 1011,6 hPa 0,0 l/m 0,3 km/h (0 Bft) W-SW 247 0 min 12,9 C 18,0 C 0,0 km/h (0 Bft)
29.08.2021 18:00 15,3 C 17,9 C 16,1 C 17,9 C 17,9 C 2,6 C 85 % 94 % 1011,6 hPa 0,0 l/m 0,3 km/h (0 Bft) O-NO 67 0 min 12,8 C 17,9 C 0,0 km/h (0 Bft)
29.08.2021 18:05 15,1 C 17,9 C 16,0 C 17,6 C 17,6 C 2,5 C 85 % 94 % 1011,6 hPa 0,0 l/m 0,2 km/h (0 Bft) S-SW 202 0 min 12,6 C 17,6 C 0,0 km/h (0 Bft)
29.08.2021 18:10 15,0 C 17,9 C 15,9 C 17,4 C 17,4 C 2,4 C 85 % 94 % 1011,6 hPa 0,0 l/m 0,0 km/h (0 Bft) SW 225 0 min 12,5 C 17,4 C 0,0 km/h (0 Bft)
29.08.2021 18:15 14,8 C 17,8 C 15,7 C 17,2 C 17,2 C 2,4 C 85 % 94 % 1011,6 hPa 0,0 l/m 0,0 km/h (0 Bft) SW 225 0 min 12,3 C 17,2 C 0,0 km/h (0 Bft)
29.08.2021 18:20 14,6 C 17,8 C 15,7 C 17,0 C 17,0 C 2,4 C 85 % 94 % 1011,6 hPa 0,0 l/m 0,2 km/h (0 Bft) W-SW 247 0 min 12,1 C 17,0 C 1,9 km/h (1 Bft)
29.08.2021 18:25 14,5 C 17,8 C 15,5 C 16,7 C 16,7 C 2,2 C 85 % 94 % 1011,6 hPa 0,0 l/m 0,0 km/h (0 Bft) SW 225 0 min 12,0 C 16,7 C 0,0 km/h (0 Bft)
29.08.2021 18:30 14,5 C 17,8 C 15,4 C 16,5 C 16,5 C 2,0 C 85 % 94 % 1011,6 hPa 0,0 l/m 0,0 km/h (0 Bft) W-SW 247 0 min 12,0 C 16,5 C 0,0 km/h (0 Bft)
29.08.2021 18:35 14,5 C 17,8 C 15,3 C 16,3 C 16,3 C 1,8 C 85 % 94 % 1011,8 hPa 0,0 l/m 0,0 km/h (0 Bft) W-SW 247 0 min 12,0 C 16,3 C 0,0 km/h (0 Bft)
29.08.2021 18:40 14,6 C 17,8 C 15,2 C 16,2 C 16,2 C 1,6 C 85 % 94 % 1011,8 hPa 0,0 l/m 0,0 km/h (0 Bft) SW 225 0 min 12,1 C 16,2 C 0,0 km/h (0 Bft)
29.08.2021 18:45 14,7 C 17,8 C 15,1 C 16,0 C 16,0 C 1,3 C 85 % 94 % 1011,8 hPa 0,0 l/m 0,0 km/h (0 Bft) SW 225 0 min 12,2 C 16,0 C 0,0 km/h (0 Bft)
29.08.2021 18:50 14,7 C 17,8 C 15,1 C 15,9 C 15,9 C 1,2 C 85 % 94 % 1011,8 hPa 0,0 l/m 0,0 km/h (0 Bft) W 270 0 min 12,2 C 15,9 C 0,0 km/h (0 Bft)
29.08.2021 18:55 14,7 C 17,8 C 15,0 C 15,7 C 15,7 C 1,0 C 85 % 94 % 1011,9 hPa 0,0 l/m 0,0 km/h (0 Bft) W 270 0 min 12,2 C 15,7 C 0,0 km/h (0 Bft)
29.08.2021 19:00 14,8 C 17,8 C 14,9 C 15,6 C 15,6 C 0,8 C 85 % 94 % 1011,9 hPa 0,0 l/m 0,0 km/h (0 Bft) W 270 0 min 12,3 C 15,6 C 0,0 km/h (0 Bft)
29.08.2021 19:05 14,8 C 17,9 C 14,8 C 15,4 C 15,4 C 0,6 C 85 % 94 % 1011,9 hPa 0,0 l/m 0,0 km/h (0 Bft) W 270 0 min 12,3 C 15,4 C 0,0 km/h (0 Bft)
29.08.2021 19:10 14,8 C 17,9 C 14,8 C 15,3 C 15,3 C 0,5 C 85 % 94 % 1011,9 hPa 0,0 l/m 0,0 km/h (0 Bft) N-NW 337 0 min 12,3 C 15,3 C 0,0 km/h (0 Bft)
29.08.2021 19:15 14,9 C 18,0 C 14,7 C 15,1 C 15,1 C 0,2 C 85 % 94 % 1011,8 hPa 0,0 l/m 0,0 km/h (0 Bft) N-NW 337 0 min 12,4 C 15,1 C 0,0 km/h (0 Bft)
29.08.2021 19:20 14,8 C 18,0 C 14,6 C 15,0 C 15,0 C 0,2 C 84 % 94 % 1011,8 hPa 0,0 l/m 0,0 km/h (0 Bft) N-NW 337 0 min 12,1 C 15,0 C 0,0 km/h (0 Bft)
29.08.2021 19:25 14,7 C 18,1 C 14,5 C 14,8 C 14,8 C 0,1 C 84 % 94 % 1011,8 hPa 0,0 l/m 0,0 km/h (0 Bft) N-NW 337 0 min 12,0 C 14,8 C 0,0 km/h (0 Bft)
29.08.2021 19:30 14,6 C 18,1 C 14,5 C 14,7 C 14,7 C 0,1 C 85 % 94 % 1011,8 hPa 0,0 l/m 0,0 km/h (0 Bft) N-NW 337 0 min 12,1 C 14,7 C 0,0 km/h (0 Bft)
29.08.2021 19:35 14,5 C 18,2 C 14,3 C 14,6 C 14,6 C 0,1 C 84 % 94 % 1011,8 hPa 0,0 l/m 0,0 km/h (0 Bft) O-NO 67 0 min 11,8 C 14,6 C 0,0 km/h (0 Bft)
29.08.2021 19:40 14,4 C 18,2 C 14,3 C 14,5 C 14,5 C 0,1 C 85 % 94 % 1011,8 hPa 0,0 l/m 0,0 km/h (0 Bft) O-NO 67 0 min 11,9 C 14,5 C 0,0 km/h (0 Bft)
29.08.2021 19:45 14,3 C 18,2 C 14,2 C 14,3 C 14,3 C 0,0 C 85 % 94 % 1011,8 hPa 0,0 l/m 0,0 km/h (0 Bft) O-NO 67 0 min 11,8 C 14,3 C 0,0 km/h (0 Bft)
29.08.2021 19:50 14,3 C 18,2 C 14,1 C 14,2 C 14,1 C 0,0 C 85 % 94 % 1011,8 hPa 0,0 l/m 0,0 km/h (0 Bft) O-NO 67 0 min 11,8 C 14,1 C 0,0 km/h (0 Bft)
29.08.2021 19:55 14,1 C 18,2 C 14,1 C 14,0 C 13,9 C 0,0 C 85 % 94 % 1011,9 hPa 0,0 l/m 0,0 km/h (0 Bft) O-NO 67 0 min 11,6 C 13,9 C 0,0 km/h (0 Bft)
29.08.2021 20:00 14,0 C 18,2 C 14,1 C 13,9 C 13,8 C 0,0 C 85 % 94 % 1011,9 hPa 0,0 l/m 0,0 km/h (0 Bft) O-NO 67 0 min 11,5 C 13,8 C 0,0 km/h (0 Bft)
29.08.2021 20:05 13,9 C 18,3 C 14,0 C 13,8 C 13,7 C 0,0 C 85 % 94 % 1011,9 hPa 0,0 l/m 0,0 km/h (0 Bft) O-NO 67 0 min 11,4 C 13,7 C 0,0 km/h (0 Bft)
29.08.2021 20:10 13,9 C 18,3 C 13,9 C 13,8 C 13,6 C 0,0 C 85 % 94 % 1011,9 hPa 0,0 l/m 0,0 km/h (0 Bft) O-NO 67 0 min 11,4 C 13,6 C 0,0 km/h (0 Bft)
29.08.2021 20:15 13,6 C 18,3 C 13,8 C 13,6 C 13,5 C 0,0 C 85 % 94 % 1012,0 hPa 0,0 l/m 0,0 km/h (0 Bft) O-NO 67 0 min 11,1 C 13,5 C 0,0 km/h (0 Bft)
29.08.2021 20:20 13,5 C 18,3 C 13,7 C 13,5 C 13,4 C 0,0 C 85 % 94 % 1012,0 hPa 0,0 l/m 0,0 km/h (0 Bft) O-NO 67 0 min 11,0 C 13,4 C 0,0 km/h (0 Bft)
29.08.2021 20:25 13,3 C 18,3 C 13,7 C 13,3 C 13,3 C 0,0 C 85 % 94 % 1012,0 hPa 0,0 l/m 0,0 km/h (0 Bft) O-NO 67 0 min 10,8 C 13,3 C 0,0 km/h (0 Bft)
29.08.2021 20:30 13,2 C 18,3 C 13,6 C 13,2 C 13,2 C 0,0 C 85 % 94 % 1012,0 hPa 0,0 l/m 0,0 km/h (0 Bft) O-NO 67 0 min 10,7 C 13,2 C 0,0 km/h (0 Bft)
29.08.2021 20:35 13,0 C 18,3 C 13,5 C 13,1 C 13,1 C 0,1 C 85 % 94 % 1012,1 hPa 0,0 l/m 0,0 km/h (0 Bft) O-NO 67 0 min 10,5 C 13,1 C 0,0 km/h (0 Bft)
29.08.2021 20:40 13,1 C 18,3 C 13,5 C 13,1 C 13,0 C 0,0 C 85 % 94 % 1012,1 hPa 0,0 l/m 0,0 km/h (0 Bft) O-NO 67 0 min 10,6 C 13,0 C 0,0 km/h (0 Bft)
29.08.2021 20:45 12,8 C 18,3 C 13,4 C 12,9 C 12,9 C 0,1 C 85 % 94 % 1012,1 hPa 0,0 l/m 0,0 km/h (0 Bft) O-NO 67 0 min 10,3 C 12,9 C 0,0 km/h (0 Bft)
29.08.2021 20:50 12,8 C 18,3 C 13,4 C 12,9 C 12,9 C 0,1 C 85 % 94 % 1012,1 hPa 0,0 l/m 0,0 km/h (0 Bft) O-NO 67 0 min 10,3 C 12,9 C 0,0 km/h (0 Bft)
29.08.2021 20:55 12,6 C 18,3 C 13,3 C 12,9 C 12,9 C 0,3 C 85 % 94 % 1012,2 hPa 0,0 l/m 0,0 km/h (0 Bft) O-NO 67 0 min 10,1 C 12,9 C 0,0 km/h (0 Bft)
29.08.2021 21:00 12,7 C 18,3 C 13,3 C 12,8 C 12,8 C 0,1 C 85 % 94 % 1012,2 hPa 0,0 l/m 0,0 km/h (0 Bft) O-NO 67 0 min 10,2 C 12,8 C 0,0 km/h (0 Bft)
29.08.2021 21:05 12,4 C 18,3 C 13,3 C 12,8 C 12,8 C 0,4 C 85 % 94 % 1012,2 hPa 0,0 l/m 0,0 km/h (0 Bft) O-NO 67 0 min 9,9 C 12,8 C 0,0 km/h (0 Bft)
29.08.2021 21:10 12,5 C 18,3 C 13,2 C 12,8 C 12,8 C 0,3 C 85 % 94 % 1012,2 hPa 0,0 l/m 0,0 km/h (0 Bft) O-NO 67 0 min 10,0 C 12,8 C 0,0 km/h (0 Bft)
29.08.2021 21:15 12,3 C 18,3 C 13,2 C 12,8 C 12,8 C 0,5 C 85 % 94 % 1012,2 hPa 0,0 l/m 0,0 km/h (0 Bft) O-NO 67 0 min 9,9 C 12,8 C 0,0 km/h (0 Bft)
29.08.2021 21:20 12,3 C 18,3 C 13,1 C 12,8 C 12,8 C 0,5 C 85 % 94 % 1012,2 hPa 0,0 l/m 0,0 km/h (0 Bft) O-NO 67 0 min 9,9 C 12,8 C 0,0 km/h (0 Bft)
29.08.2021 21:25 12,2 C 18,4 C 13,1 C 12,7 C 12,7 C 0,5 C 85 % 94 % 1012,2 hPa 0,0 l/m 0,0 km/h (0 Bft) O-NO 67 0 min 9,8 C 12,7 C 0,0 km/h (0 Bft)
29.08.2021 21:30 12,0 C 18,4 C 13,1 C 12,7 C 12,7 C 0,7 C 85 % 94 % 1012,2 hPa 0,0 l/m 0,0 km/h (0 Bft) O-NO 67 0 min 9,6 C 12,7 C 0,0 km/h (0 Bft)
29.08.2021 21:35 12,1 C 18,4 C 13,1 C 12,7 C 12,7 C 0,6 C 85 % 94 % 1012,2 hPa 0,0 l/m 0,0 km/h (0 Bft) O-NO 67 0 min 9,7 C 12,7 C 0,0 km/h (0 Bft)
29.08.2021 21:40 12,0 C 18,4 C 13,0 C 12,6 C 12,6 C 0,6 C 86 % 94 % 1012,2 hPa 0,0 l/m 0,0 km/h (0 Bft) O-NO 67 0 min 9,7 C 12,6 C 0,0 km/h (0 Bft)
29.08.2021 21:45 11,9 C 18,4 C 13,0 C 12,6 C 12,6 C 0,7 C 86 % 94 % 1012,2 hPa 0,0 l/m 0,0 km/h (0 Bft) O-NO 67 0 min 9,6 C 12,6 C 0,0 km/h (0 Bft)
29.08.2021 21:50 11,8 C 18,4 C 13,0 C 12,5 C 12,5 C 0,7 C 85 % 94 % 1012,2 hPa 0,0 l/m 0,0 km/h (0 Bft) O-NO 67 0 min 9,4 C 12,5 C 0,0 km/h (0 Bft)
29.08.2021 21:55 11,8 C 18,4 C 12,9 C 12,5 C 12,5 C 0,7 C 85 % 94 % 1012,2 hPa 0,0 l/m 0,0 km/h (0 Bft) O-NO 67 0 min 9,4 C 12,5 C 0,0 km/h (0 Bft)
29.08.2021 22:00 11,7 C 18,4 C 12,9 C 12,5 C 12,5 C 0,8 C 85 % 94 % 1012,2 hPa 0,0 l/m 0,0 km/h (0 Bft) O-NO 67 0 min 9,3 C 12,5 C 0,0 km/h (0 Bft)
29.08.2021 22:05 11,6 C 18,3 C 12,8 C 12,4 C 12,4 C 0,8 C 85 % 94 % 1012,2 hPa 0,0 l/m 0,0 km/h (0 Bft) O-NO 67 0 min 9,2 C 12,4 C 0,0 km/h (0 Bft)
29.08.2021 22:10 11,6 C 18,3 C 12,8 C 12,3 C 12,3 C 0,7 C 85 % 94 % 1012,2 hPa 0,0 l/m 0,0 km/h (0 Bft) O-NO 67 0 min 9,2 C 12,3 C 0,0 km/h (0 Bft)
29.08.2021 22:15 11,6 C 18,3 C 12,7 C 12,3 C 12,3 C 0,7 C 85 % 94 % 1012,1 hPa 0,0 l/m 0,0 km/h (0 Bft) O-NO 67 0 min 9,2 C 12,3 C 0,0 km/h (0 Bft)
29.08.2021 22:20 11,5 C 18,3 C 12,7 C 12,3 C 12,3 C 0,8 C 85 % 94 % 1012,1 hPa 0,0 l/m 0,0 km/h (0 Bft) O-NO 67 0 min 9,1 C 12,3 C 0,0 km/h (0 Bft)
29.08.2021 22:25 11,5 C 18,3 C 12,7 C 12,3 C 12,3 C 0,8 C 86 % 94 % 1012,1 hPa 0,0 l/m 0,0 km/h (0 Bft) O-NO 67 0 min 9,2 C 12,3 C 0,0 km/h (0 Bft)
29.08.2021 22:30 11,5 C 18,3 C 12,6 C 12,2 C 12,2 C 0,7 C 86 % 94 % 1012,1 hPa 0,0 l/m 0,0 km/h (0 Bft) O-NO 67 0 min 9,2 C 12,2 C 0,0 km/h (0 Bft)
29.08.2021 22:35 11,3 C 18,3 C 12,6 C 12,2 C 12,2 C 0,9 C 86 % 94 % 1011,8 hPa 0,0 l/m 0,0 km/h (0 Bft) O-NO 67 0 min 9,0 C 12,2 C 0,0 km/h (0 Bft)
29.08.2021 22:40 11,3 C 18,3 C 12,6 C 12,2 C 12,2 C 0,9 C 86 % 94 % 1011,8 hPa 0,0 l/m 0,0 km/h (0 Bft) O-NO 67 0 min 9,0 C 12,2 C 0,0 km/h (0 Bft)
29.08.2021 22:45 11,2 C 18,3 C 12,5 C 12,2 C 12,2 C 1,0 C 86 % 94 % 1011,8 hPa 0,0 l/m 0,0 km/h (0 Bft) O-NO 67 0 min 8,9 C 12,2 C 0,0 km/h (0 Bft)
29.08.2021 22:50 11,2 C 18,3 C 12,6 C 12,2 C 12,2 C 1,0 C 86 % 94 % 1011,8 hPa 0,0 l/m 0,0 km/h (0 Bft) O-NO 67 0 min 8,9 C 12,2 C 0,0 km/h (0 Bft)
29.08.2021 22:55 11,2 C 18,3 C 12,6 C 12,1 C 12,1 C 0,9 C 86 % 94 % 1011,7 hPa 0,0 l/m 0,0 km/h (0 Bft) O-NO 67 0 min 8,9 C 12,1 C 0,0 km/h (0 Bft)
29.08.2021 23:00 11,2 C 18,3 C 12,5 C 12,1 C 12,1 C 0,9 C 86 % 94 % 1011,7 hPa 0,0 l/m 0,0 km/h (0 Bft) O-NO 67 0 min 8,9 C 12,1 C 0,0 km/h (0 Bft)
29.08.2021 23:05 11,2 C 18,3 C 12,5 C 12,1 C 12,1 C 0,9 C 86 % 94 % 1011,7 hPa 0,0 l/m 0,0 km/h (0 Bft) O-NO 67 0 min 8,9 C 12,1 C 0,0 km/h (0 Bft)
29.08.2021 23:10 11,1 C 18,3 C 12,5 C 12,1 C 12,1 C 1,0 C 86 % 94 % 1011,7 hPa 0,0 l/m 0,0 km/h (0 Bft) O-NO 67 0 min 8,8 C 12,1 C 0,0 km/h (0 Bft)
29.08.2021 23:15 11,1 C 18,3 C 12,5 C 12,1 C 12,1 C 1,0 C 86 % 94 % 1011,8 hPa 0,0 l/m 0,0 km/h (0 Bft) O-NO 67 0 min 8,8 C 12,1 C 0,0 km/h (0 Bft)
29.08.2021 23:20 11,1 C 18,3 C 12,5 C 12,1 C 12,1 C 1,0 C 86 % 94 % 1011,8 hPa 0,0 l/m 0,0 km/h (0 Bft) O-NO 67 0 min 8,8 C 12,1 C 0,0 km/h (0 Bft)
29.08.2021 23:25 11,0 C 18,3 C 12,5 C 12,0 C 12,0 C 1,0 C 86 % 94 % 1011,8 hPa 0,0 l/m 0,0 km/h (0 Bft) O-NO 67 0 min 8,7 C 12,0 C 0,0 km/h (0 Bft)
29.08.2021 23:30 11,1 C 18,3 C 12,5 C 11,9 C 11,9 C 0,8 C 86 % 94 % 1011,8 hPa 0,0 l/m 0,0 km/h (0 Bft) O-NO 67 0 min 8,8 C 11,9 C 0,0 km/h (0 Bft)
29.08.2021 23:35 11,1 C 18,3 C 12,5 C 11,9 C 11,9 C 0,8 C 86 % 94 % 1011,4 hPa 0,0 l/m 0,0 km/h (0 Bft) O-NO 67 0 min 8,8 C 11,9 C 0,0 km/h (0 Bft)
29.08.2021 23:40 11,0 C 18,3 C 12,4 C 11,9 C 11,9 C 0,9 C 86 % 94 % 1011,4 hPa 0,0 l/m 0,0 km/h (0 Bft) O-NO 67 0 min 8,7 C 11,9 C 0,0 km/h (0 Bft)
29.08.2021 23:45 10,9 C 18,3 C 12,4 C 11,9 C 11,9 C 1,0 C 86 % 94 % 1011,4 hPa 0,0 l/m 0,0 km/h (0 Bft) O-NO 67 0 min 8,7 C 11,9 C 0,0 km/h (0 Bft)
29.08.2021 23:50 10,9 C 18,3 C 12,3 C 11,9 C 11,9 C 1,0 C 86 % 94 % 1011,4 hPa 0,0 l/m 0,0 km/h (0 Bft) O-NO 67 0 min 8,7 C 11,9 C 0,0 km/h (0 Bft)
29.08.2021 23:55 10,9 C 18,3 C 12,3 C 11,9 C 11,9 C 1,0 C 86 % 94 % 1011,4 hPa 0,0 l/m 0,0 km/h (0 Bft) O-NO 67 0 min 8,7 C 11,9 C 0,0 km/h (0 Bft)
_ Min-Zeit 01:05 16:35 00:35 00:35 00:35 19:45 19:20 03:50 23:35 - 00:00 - - - 01:05 00:35 00:00
Minimum _ 9,9 C 17,6 C 10,7 C 10,3 C 10,3 C 0,0 C 84 % 91 % 1011,4 hPa - 0,0 km/h (0 Bft) - - - 8,0 C 10,3 C 0,0 km/h (0 Bft)
_ Max-Zeit 16:50 21:25 15:20 14:50 14:50 14:50 02:55 14:25 02:35 00:00 16:40 - - 06:30 16:00 14:50 15:05
Maximum _ 16,8 C 18,4 C 18,3 C 28,5 C 28,5 C 13,4 C 89 % 94 % 1015,0 hPa 0,0 l/m 1,9 km/h
W (1 Bft)
- - 5 min 14,5 C 28,5 C 7,9 km/h
W-SW (2 Bft)
Durchschnitt _ 12,7 C 18,0 C 13,7 C 15,4 C 15,4 C 2,7 C 87 % 93 % 1012,9 hPa #0,0 l/m 0,1 km/h (0 Bft) SW - #6:00 h 10,7 C 15,4 C 0,3 km/h (0 Bft)
2021 www.wetterstation-wechselburg.de